sensor_id;sensor_type;location;lat;lon;timestamp;temperature;humidity
7341;DHT22;6870;50.944;6.932;2022-09-01T00:00:04;26.40;21.40
7341;DHT22;6870;50.944;6.932;2022-09-01T00:02:34;25.90;21.60
7341;DHT22;6870;50.944;6.932;2022-09-01T00:05:02;26.00;21.70
7341;DHT22;6870;50.944;6.932;2022-09-01T00:07:34;25.70;21.50
7341;DHT22;6870;50.944;6.932;2022-09-01T00:10:04;25.90;21.80
7341;DHT22;6870;50.944;6.932;2022-09-01T00:12:35;26.20;21.90
7341;DHT22;6870;50.944;6.932;2022-09-01T00:15:07;25.90;21.60
7341;DHT22;6870;50.944;6.932;2022-09-01T00:17:37;25.60;21.50
7341;DHT22;6870;50.944;6.932;2022-09-01T00:20:06;25.90;21.50
7341;DHT22;6870;50.944;6.932;2022-09-01T00:22:35;25.90;21.90
7341;DHT22;6870;50.944;6.932;2022-09-01T00:25:04;26.20;21.90
7341;DHT22;6870;50.944;6.932;2022-09-01T00:27:33;25.90;22.30
7341;DHT22;6870;50.944;6.932;2022-09-01T00:30:05;26.10;22.10
7341;DHT22;6870;50.944;6.932;2022-09-01T00:32:34;26.10;22.40
7341;DHT22;6870;50.944;6.932;2022-09-01T00:35:03;25.50;21.70
7341;DHT22;6870;50.944;6.932;2022-09-01T00:37:32;25.90;23.00
7341;DHT22;6870;50.944;6.932;2022-09-01T00:40:00;25.90;22.10
7341;DHT22;6870;50.944;6.932;2022-09-01T00:42:28;26.20;22.30
7341;DHT22;6870;50.944;6.932;2022-09-01T00:44:56;25.80;22.00
7341;DHT22;6870;50.944;6.932;2022-09-01T00:47:27;25.90;22.10
7341;DHT22;6870;50.944;6.932;2022-09-01T00:49:55;25.80;22.10
7341;DHT22;6870;50.944;6.932;2022-09-01T00:52:28;25.90;22.50
7341;DHT22;6870;50.944;6.932;2022-09-01T00:55:02;26.20;22.80
7341;DHT22;6870;50.944;6.932;2022-09-01T00:57:32;25.70;22.30
7341;DHT22;6870;50.944;6.932;2022-09-01T01:00:05;25.70;22.60
7341;DHT22;6870;50.944;6.932;2022-09-01T01:02:39;25.90;22.70
7341;DHT22;6870;50.944;6.932;2022-09-01T01:05:08;25.90;23.00
7341;DHT22;6870;50.944;6.932;2022-09-01T01:07:42;25.90;23.10
7341;DHT22;6870;50.944;6.932;2022-09-01T01:10:15;26.20;23.60
7341;DHT22;6870;50.944;6.932;2022-09-01T01:12:44;26.20;23.50
7341;DHT22;6870;50.944;6.932;2022-09-01T01:15:20;25.80;23.70
7341;DHT22;6870;50.944;6.932;2022-09-01T01:17:49;25.90;23.80
7341;DHT22;6870;50.944;6.932;2022-09-01T01:20:18;26.20;24.20
7341;DHT22;6870;50.944;6.932;2022-09-01T01:23:13;26.20;24.00
7341;DHT22;6870;50.944;6.932;2022-09-01T01:25:48;26.20;24.30
7341;DHT22;6870;50.944;6.932;2022-09-01T01:28:20;25.80;24.10
7341;DHT22;6870;50.944;6.932;2022-09-01T01:30:55;25.90;24.10
7341;DHT22;6870;50.944;6.932;2022-09-01T01:33:33;25.80;24.00
7341;DHT22;6870;50.944;6.932;2022-09-01T01:36:12;25.90;24.40
7341;DHT22;6870;50.944;6.932;2022-09-01T01:38:45;25.80;24.10
7341;DHT22;6870;50.944;6.932;2022-09-01T01:41:16;25.90;24.30
7341;DHT22;6870;50.944;6.932;2022-09-01T01:43:45;25.80;24.50
7341;DHT22;6870;50.944;6.932;2022-09-01T01:46:14;25.70;24.40
7341;DHT22;6870;50.944;6.932;2022-09-01T01:48:45;25.90;24.40
7341;DHT22;6870;50.944;6.932;2022-09-01T01:51:16;26.00;24.50
7341;DHT22;6870;50.944;6.932;2022-09-01T01:53:47;25.80;24.30
7341;DHT22;6870;50.944;6.932;2022-09-01T01:56:20;26.00;24.30
7341;DHT22;6870;50.944;6.932;2022-09-01T01:58:51;25.80;24.40
7341;DHT22;6870;50.944;6.932;2022-09-01T02:01:23;25.80;24.40
7341;DHT22;6870;50.944;6.932;2022-09-01T02:03:54;25.70;24.40
7341;DHT22;6870;50.944;6.932;2022-09-01T02:06:27;25.80;24.50
7341;DHT22;6870;50.944;6.932;2022-09-01T02:08:56;25.80;24.50
7341;DHT22;6870;50.944;6.932;2022-09-01T02:11:26;25.80;24.40
7341;DHT22;6870;50.944;6.932;2022-09-01T02:13:55;25.80;24.40
7341;DHT22;6870;50.944;6.932;2022-09-01T02:16:25;25.90;24.60
7341;DHT22;6870;50.944;6.932;2022-09-01T02:18:55;25.90;24.80
7341;DHT22;6870;50.944;6.932;2022-09-01T02:21:24;25.80;25.00
7341;DHT22;6870;50.944;6.932;2022-09-01T02:23:55;25.80;25.30
7341;DHT22;6870;50.944;6.932;2022-09-01T02:26:30;25.80;25.00
7341;DHT22;6870;50.944;6.932;2022-09-01T02:29:01;25.80;25.00
7341;DHT22;6870;50.944;6.932;2022-09-01T02:31:32;25.80;25.10
7341;DHT22;6870;50.944;6.932;2022-09-01T02:34:05;25.70;24.90
7341;DHT22;6870;50.944;6.932;2022-09-01T02:36:37;26.10;25.50
7341;DHT22;6870;50.944;6.932;2022-09-01T02:39:08;25.70;25.30
7341;DHT22;6870;50.944;6.932;2022-09-01T02:41:39;25.70;25.20
7341;DHT22;6870;50.944;6.932;2022-09-01T02:44:07;25.70;24.90
7341;DHT22;6870;50.944;6.932;2022-09-01T02:46:38;25.70;24.60
7341;DHT22;6870;50.944;6.932;2022-09-01T02:49:09;25.90;24.70
7341;DHT22;6870;50.944;6.932;2022-09-01T02:51:41;25.80;24.60
7341;DHT22;6870;50.944;6.932;2022-09-01T02:54:11;25.70;24.50
7341;DHT22;6870;50.944;6.932;2022-09-01T02:56:43;26.10;25.00
7341;DHT22;6870;50.944;6.932;2022-09-01T02:59:13;25.80;24.80
7341;DHT22;6870;50.944;6.932;2022-09-01T03:01:41;25.80;24.60
7341;DHT22;6870;50.944;6.932;2022-09-01T03:04:13;25.70;24.90
7341;DHT22;6870;50.944;6.932;2022-09-01T03:06:41;25.80;25.00
7341;DHT22;6870;50.944;6.932;2022-09-01T03:09:12;25.70;25.00
7341;DHT22;6870;50.944;6.932;2022-09-01T03:11:44;25.80;24.90
7341;DHT22;6870;50.944;6.932;2022-09-01T03:14:14;25.60;25.20
7341;DHT22;6870;50.944;6.932;2022-09-01T03:16:42;25.60;25.20
7341;DHT22;6870;50.944;6.932;2022-09-01T03:19:11;25.30;25.10
7341;DHT22;6870;50.944;6.932;2022-09-01T03:21:41;25.90;25.40
7341;DHT22;6870;50.944;6.932;2022-09-01T03:24:14;25.80;25.20
7341;DHT22;6870;50.944;6.932;2022-09-01T03:26:46;25.70;25.20
7341;DHT22;6870;50.944;6.932;2022-09-01T03:29:16;25.70;25.80
7341;DHT22;6870;50.944;6.932;2022-09-01T03:31:44;25.60;25.60
7341;DHT22;6870;50.944;6.932;2022-09-01T03:34:13;25.60;25.70
7341;DHT22;6870;50.944;6.932;2022-09-01T03:36:42;25.70;25.50
7341;DHT22;6870;50.944;6.932;2022-09-01T03:39:16;25.80;25.50
7341;DHT22;6870;50.944;6.932;2022-09-01T03:41:46;25.70;25.50
7341;DHT22;6870;50.944;6.932;2022-09-01T03:44:14;25.60;25.30
7341;DHT22;6870;50.944;6.932;2022-09-01T03:46:43;25.70;25.40
7341;DHT22;6870;50.944;6.932;2022-09-01T03:49:11;25.60;25.30
7341;DHT22;6870;50.944;6.932;2022-09-01T03:51:41;25.80;25.50
7341;DHT22;6870;50.944;6.932;2022-09-01T03:54:10;25.60;25.50
7341;DHT22;6870;50.944;6.932;2022-09-01T03:56:39;25.60;25.30
7341;DHT22;6870;50.944;6.932;2022-09-01T03:59:10;25.70;25.60
7341;DHT22;6870;50.944;6.932;2022-09-01T04:01:43;25.80;25.60
7341;DHT22;6870;50.944;6.932;2022-09-01T04:04:12;25.70;25.40
7341;DHT22;6870;50.944;6.932;2022-09-01T04:06:41;25.70;25.50
7341;DHT22;6870;50.944;6.932;2022-09-01T04:09:10;25.60;25.30
7341;DHT22;6870;50.944;6.932;2022-09-01T04:11:39;25.60;25.80
7341;DHT22;6870;50.944;6.932;2022-09-01T04:14:13;25.70;25.60
7341;DHT22;6870;50.944;6.932;2022-09-01T04:16:42;25.70;25.90
7341;DHT22;6870;50.944;6.932;2022-09-01T04:19:33;25.70;25.50
7341;DHT22;6870;50.944;6.932;2022-09-01T04:22:02;25.70;26.50
7341;DHT22;6870;50.944;6.932;2022-09-01T04:24:32;25.50;26.40
7341;DHT22;6870;50.944;6.932;2022-09-01T04:27:01;25.50;25.20
7341;DHT22;6870;50.944;6.932;2022-09-01T04:29:34;25.30;25.30
7341;DHT22;6870;50.944;6.932;2022-09-01T04:32:08;25.50;25.30
7341;DHT22;6870;50.944;6.932;2022-09-01T04:34:38;25.70;26.40
7341;DHT22;6870;50.944;6.932;2022-09-01T04:37:09;25.70;25.40
7341;DHT22;6870;50.944;6.932;2022-09-01T04:39:40;25.70;25.50
7341;DHT22;6870;50.944;6.932;2022-09-01T04:42:20;25.80;25.80
7341;DHT22;6870;50.944;6.932;2022-09-01T04:44:52;25.50;26.50
7341;DHT22;6870;50.944;6.932;2022-09-01T04:47:20;25.50;25.80
7341;DHT22;6870;50.944;6.932;2022-09-01T04:50:02;25.60;25.90
7341;DHT22;6870;50.944;6.932;2022-09-01T04:52:39;25.60;26.60
7341;DHT22;6870;50.944;6.932;2022-09-01T04:55:09;25.70;26.60
7341;DHT22;6870;50.944;6.932;2022-09-01T04:57:43;25.60;26.60
7341;DHT22;6870;50.944;6.932;2022-09-01T05:00:18;25.50;26.60
7341;DHT22;6870;50.944;6.932;2022-09-01T05:02:52;25.60;26.70
7341;DHT22;6870;50.944;6.932;2022-09-01T05:05:26;25.30;26.50
7341;DHT22;6870;50.944;6.932;2022-09-01T05:07:55;25.60;26.90
7341;DHT22;6870;50.944;6.932;2022-09-01T05:10:23;25.40;26.20
7341;DHT22;6870;50.944;6.932;2022-09-01T05:12:55;25.70;27.00
7341;DHT22;6870;50.944;6.932;2022-09-01T05:15:25;25.60;26.90
7341;DHT22;6870;50.944;6.932;2022-09-01T05:17:53;25.40;26.70
7341;DHT22;6870;50.944;6.932;2022-09-01T05:20:27;25.60;26.80
7341;DHT22;6870;50.944;6.932;2022-09-01T05:22:57;25.00;26.50
7341;DHT22;6870;50.944;6.932;2022-09-01T05:25:25;25.20;26.80
7341;DHT22;6870;50.944;6.932;2022-09-01T05:27:53;25.60;27.50
7341;DHT22;6870;50.944;6.932;2022-09-01T05:30:22;25.50;27.10
7341;DHT22;6870;50.944;6.932;2022-09-01T05:32:55;25.40;26.90
7341;DHT22;6870;50.944;6.932;2022-09-01T05:35:23;25.40;26.80
7341;DHT22;6870;50.944;6.932;2022-09-01T05:37:58;25.30;26.90
7341;DHT22;6870;50.944;6.932;2022-09-01T05:40:26;25.10;26.70
7341;DHT22;6870;50.944;6.932;2022-09-01T05:42:54;25.30;27.20
7341;DHT22;6870;50.944;6.932;2022-09-01T05:45:24;25.70;27.30
7341;DHT22;6870;50.944;6.932;2022-09-01T05:47:52;25.10;26.90
7341;DHT22;6870;50.944;6.932;2022-09-01T05:50:22;25.10;27.00
7341;DHT22;6870;50.944;6.932;2022-09-01T05:52:51;25.40;27.00
7341;DHT22;6870;50.944;6.932;2022-09-01T05:55:19;25.60;27.20
7341;DHT22;6870;50.944;6.932;2022-09-01T05:57:48;25.40;25.50
7341;DHT22;6870;50.944;6.932;2022-09-01T06:00:16;25.70;25.50
7341;DHT22;6870;50.944;6.932;2022-09-01T06:02:46;25.40;25.30
7341;DHT22;6870;50.944;6.932;2022-09-01T06:05:14;25.50;24.70
7341;DHT22;6870;50.944;6.932;2022-09-01T06:07:44;25.10;24.90
7341;DHT22;6870;50.944;6.932;2022-09-01T06:10:12;25.50;25.10
7341;DHT22;6870;50.944;6.932;2022-09-01T06:12:41;25.00;24.50
7341;DHT22;6870;50.944;6.932;2022-09-01T06:15:14;25.60;24.50
7341;DHT22;6870;50.944;6.932;2022-09-01T06:17:44;25.40;24.10
7341;DHT22;6870;50.944;6.932;2022-09-01T06:20:12;25.50;23.90
7341;DHT22;6870;50.944;6.932;2022-09-01T06:22:45;25.30;23.60
7341;DHT22;6870;50.944;6.932;2022-09-01T06:25:14;25.50;23.20
7341;DHT22;6870;50.944;6.932;2022-09-01T06:27:45;25.00;23.20
7341;DHT22;6870;50.944;6.932;2022-09-01T06:30:15;25.10;23.20
7341;DHT22;6870;50.944;6.932;2022-09-01T06:32:50;25.00;23.20
7341;DHT22;6870;50.944;6.932;2022-09-01T06:35:20;25.10;23.10
7341;DHT22;6870;50.944;6.932;2022-09-01T06:37:52;25.40;23.10
7341;DHT22;6870;50.944;6.932;2022-09-01T06:40:22;25.00;22.50
7341;DHT22;6870;50.944;6.932;2022-09-01T06:42:52;25.10;22.20
7341;DHT22;6870;50.944;6.932;2022-09-01T06:45:22;25.40;23.00
7341;DHT22;6870;50.944;6.932;2022-09-01T06:47:50;25.10;21.90
7341;DHT22;6870;50.944;6.932;2022-09-01T06:50:26;25.50;22.90
7341;DHT22;6870;50.944;6.932;2022-09-01T06:53:17;25.10;21.60
7341;DHT22;6870;50.944;6.932;2022-09-01T06:56:05;25.10;22.40
7341;DHT22;6870;50.944;6.932;2022-09-01T06:58:33;25.50;22.40
7341;DHT22;6870;50.944;6.932;2022-09-01T07:01:05;25.60;22.40
7341;DHT22;6870;50.944;6.932;2022-09-01T07:03:40;25.10;21.30
7341;DHT22;6870;50.944;6.932;2022-09-01T07:06:09;25.10;21.80
7341;DHT22;6870;50.944;6.932;2022-09-01T07:09:00;25.30;21.40
7341;DHT22;6870;50.944;6.932;2022-09-01T07:11:49;25.20;21.90
7341;DHT22;6870;50.944;6.932;2022-09-01T07:14:38;25.50;21.80
7341;DHT22;6870;50.944;6.932;2022-09-01T07:17:26;25.00;20.90
7341;DHT22;6870;50.944;6.932;2022-09-01T07:19:56;25.00;20.60
7341;DHT22;6870;50.944;6.932;2022-09-01T07:22:44;25.10;20.60
7341;DHT22;6870;50.944;6.932;2022-09-01T07:25:36;25.00;19.90
7341;DHT22;6870;50.944;6.932;2022-09-01T07:28:27;25.50;21.00
7341;DHT22;6870;50.944;6.932;2022-09-01T07:31:06;25.10;20.00
7341;DHT22;6870;50.944;6.932;2022-09-01T07:33:57;25.10;20.30
7341;DHT22;6870;50.944;6.932;2022-09-01T07:36:46;25.50;20.50
7341;DHT22;6870;50.944;6.932;2022-09-01T07:39:35;25.10;19.50
7341;DHT22;6870;50.944;6.932;2022-09-01T07:42:25;25.50;19.80
7341;DHT22;6870;50.944;6.932;2022-09-01T07:45:15;25.70;20.00
7341;DHT22;6870;50.944;6.932;2022-09-01T07:47:52;25.60;19.50
7341;DHT22;6870;50.944;6.932;2022-09-01T07:50:20;25.70;19.50
7341;DHT22;6870;50.944;6.932;2022-09-01T07:53:07;25.70;19.10
7341;DHT22;6870;50.944;6.932;2022-09-01T07:55:38;25.70;18.70
7341;DHT22;6870;50.944;6.932;2022-09-01T07:58:11;25.30;18.60
7341;DHT22;6870;50.944;6.932;2022-09-01T08:00:40;25.70;18.70
7341;DHT22;6870;50.944;6.932;2022-09-01T08:03:11;25.60;18.50
7341;DHT22;6870;50.944;6.932;2022-09-01T08:05:40;26.00;19.10
7341;DHT22;6870;50.944;6.932;2022-09-01T08:08:09;25.60;18.50
7341;DHT22;6870;50.944;6.932;2022-09-01T08:10:45;25.70;18.80
7341;DHT22;6870;50.944;6.932;2022-09-01T08:13:16;25.80;18.30
7341;DHT22;6870;50.944;6.932;2022-09-01T08:15:48;25.70;18.50
7341;DHT22;6870;50.944;6.932;2022-09-01T08:18:34;25.60;18.20
7341;DHT22;6870;50.944;6.932;2022-09-01T08:21:18;25.70;18.60
7341;DHT22;6870;50.944;6.932;2022-09-01T08:23:49;25.70;18.30
7341;DHT22;6870;50.944;6.932;2022-09-01T08:26:20;25.60;18.10
7341;DHT22;6870;50.944;6.932;2022-09-01T08:28:51;25.80;18.00
7341;DHT22;6870;50.944;6.932;2022-09-01T08:31:23;25.70;18.00
7341;DHT22;6870;50.944;6.932;2022-09-01T08:33:56;25.50;18.20
7341;DHT22;6870;50.944;6.932;2022-09-01T08:36:25;26.10;18.40
7341;DHT22;6870;50.944;6.932;2022-09-01T08:38:53;25.80;18.40
7341;DHT22;6870;50.944;6.932;2022-09-01T08:41:31;26.20;18.60
7341;DHT22;6870;50.944;6.932;2022-09-01T08:44:25;25.80;18.10
7341;DHT22;6870;50.944;6.932;2022-09-01T08:47:00;25.70;18.00
7341;DHT22;6870;50.944;6.932;2022-09-01T08:49:33;25.80;18.40
7341;DHT22;6870;50.944;6.932;2022-09-01T08:52:17;25.90;18.00
7341;DHT22;6870;50.944;6.932;2022-09-01T08:54:51;26.10;18.20
7341;DHT22;6870;50.944;6.932;2022-09-01T08:57:25;25.70;17.50
7341;DHT22;6870;50.944;6.932;2022-09-01T08:59:57;26.10;17.30
7341;DHT22;6870;50.944;6.932;2022-09-01T09:02:36;25.70;17.10
7341;DHT22;6870;50.944;6.932;2022-09-01T09:05:32;26.00;17.50
7341;DHT22;6870;50.944;6.932;2022-09-01T09:08:21;25.90;17.70
7341;DHT22;6870;50.944;6.932;2022-09-01T09:11:00;26.20;18.10
7341;DHT22;6870;50.944;6.932;2022-09-01T09:13:40;25.90;17.50
7341;DHT22;6870;50.944;6.932;2022-09-01T09:16:17;26.30;17.60
7341;DHT22;6870;50.944;6.932;2022-09-01T09:18:50;26.30;17.00
7341;DHT22;6870;50.944;6.932;2022-09-01T09:21:26;25.90;16.80
7341;DHT22;6870;50.944;6.932;2022-09-01T09:23:58;26.20;17.30
7341;DHT22;6870;50.944;6.932;2022-09-01T09:26:29;26.20;17.30
7341;DHT22;6870;50.944;6.932;2022-09-01T09:29:13;26.00;16.00
7341;DHT22;6870;50.944;6.932;2022-09-01T09:31:43;26.10;16.60
7341;DHT22;6870;50.944;6.932;2022-09-01T09:34:29;26.10;16.80
7341;DHT22;6870;50.944;6.932;2022-09-01T09:37:20;26.30;17.00
7341;DHT22;6870;50.944;6.932;2022-09-01T09:40:09;26.30;16.20
7341;DHT22;6870;50.944;6.932;2022-09-01T09:42:57;25.90;15.70
7341;DHT22;6870;50.944;6.932;2022-09-01T09:45:30;26.30;16.00
7341;DHT22;6870;50.944;6.932;2022-09-01T09:48:05;26.40;16.40
7341;DHT22;6870;50.944;6.932;2022-09-01T09:50:38;26.30;16.00
7341;DHT22;6870;50.944;6.932;2022-09-01T09:53:15;26.50;16.90
7341;DHT22;6870;50.944;6.932;2022-09-01T09:55:57;26.30;16.30
7341;DHT22;6870;50.944;6.932;2022-09-01T09:58:33;26.00;14.90
7341;DHT22;6870;50.944;6.932;2022-09-01T10:01:09;26.30;15.70
7341;DHT22;6870;50.944;6.932;2022-09-01T10:03:46;26.50;14.80
7341;DHT22;6870;50.944;6.932;2022-09-01T10:06:30;26.60;15.00
7341;DHT22;6870;50.944;6.932;2022-09-01T10:09:03;26.60;15.80
7341;DHT22;6870;50.944;6.932;2022-09-01T10:11:37;26.50;15.30
7341;DHT22;6870;50.944;6.932;2022-09-01T10:14:12;26.00;15.50
7341;DHT22;6870;50.944;6.932;2022-09-01T10:17:07;26.60;15.30
7341;DHT22;6870;50.944;6.932;2022-09-01T10:19:46;26.60;15.40
7341;DHT22;6870;50.944;6.932;2022-09-01T10:22:16;26.40;17.40
7341;DHT22;6870;50.944;6.932;2022-09-01T10:24:44;26.50;16.90
7341;DHT22;6870;50.944;6.932;2022-09-01T10:27:19;26.40;17.10
7341;DHT22;6870;50.944;6.932;2022-09-01T10:29:53;26.50;18.20
7341;DHT22;6870;50.944;6.932;2022-09-01T10:32:45;26.30;19.10
7341;DHT22;6870;50.944;6.932;2022-09-01T10:35:26;26.50;18.00
7341;DHT22;6870;50.944;6.932;2022-09-01T10:37:58;26.50;17.70
7341;DHT22;6870;50.944;6.932;2022-09-01T10:40:36;26.50;17.80
7341;DHT22;6870;50.944;6.932;2022-09-01T10:43:31;26.50;17.50
7341;DHT22;6870;50.944;6.932;2022-09-01T10:55:40;26.60;16.60
7341;DHT22;6870;50.944;6.932;2022-09-01T10:58:41;26.50;15.30
7341;DHT22;6870;50.944;6.932;2022-09-01T11:02:10;26.70;15.40
7341;DHT22;6870;50.944;6.932;2022-09-01T11:05:15;27.00;15.50
7341;DHT22;6870;50.944;6.932;2022-09-01T11:07:44;26.80;15.40
7341;DHT22;6870;50.944;6.932;2022-09-01T11:10:43;26.90;15.50
7341;DHT22;6870;50.944;6.932;2022-09-01T11:13:35;26.70;15.40
7341;DHT22;6870;50.944;6.932;2022-09-01T11:16:24;27.30;14.50
7341;DHT22;6870;50.944;6.932;2022-09-01T11:19:34;27.40;15.40
7341;DHT22;6870;50.944;6.932;2022-09-01T11:22:25;27.40;14.90
7341;DHT22;6870;50.944;6.932;2022-09-01T11:25:34;27.40;14.30
7341;DHT22;6870;50.944;6.932;2022-09-01T11:28:38;27.90;14.40
7341;DHT22;6870;50.944;6.932;2022-09-01T11:31:37;28.00;13.00
7341;DHT22;6870;50.944;6.932;2022-09-01T11:34:12;28.00;12.90
7341;DHT22;6870;50.944;6.932;2022-09-01T11:36:57;28.10;13.90
7341;DHT22;6870;50.944;6.932;2022-09-01T11:39:33;27.80;13.70
7341;DHT22;6870;50.944;6.932;2022-09-01T11:42:09;28.00;13.90
7341;DHT22;6870;50.944;6.932;2022-09-01T11:44:45;27.70;14.10
7341;DHT22;6870;50.944;6.932;2022-09-01T11:47:18;27.50;14.20
7341;DHT22;6870;50.944;6.932;2022-09-01T11:49:53;27.40;14.20
7341;DHT22;6870;50.944;6.932;2022-09-01T11:52:24;27.70;14.40
7341;DHT22;6870;50.944;6.932;2022-09-01T11:54:55;27.90;14.90
7341;DHT22;6870;50.944;6.932;2022-09-01T11:57:27;27.70;14.80
7341;DHT22;6870;50.944;6.932;2022-09-01T12:00:00;27.90;14.40
7341;DHT22;6870;50.944;6.932;2022-09-01T12:02:34;27.40;14.60
7341;DHT22;6870;50.944;6.932;2022-09-01T12:05:23;27.70;13.20
7341;DHT22;6870;50.944;6.932;2022-09-01T12:07:53;27.60;14.60
7341;DHT22;6870;50.944;6.932;2022-09-01T12:10:28;27.80;14.50
7341;DHT22;6870;50.944;6.932;2022-09-01T12:13:04;27.70;14.60
7341;DHT22;6870;50.944;6.932;2022-09-01T12:15:37;27.70;14.80
7341;DHT22;6870;50.944;6.932;2022-09-01T12:18:28;27.70;14.50
7341;DHT22;6870;50.944;6.932;2022-09-01T12:20:58;27.70;15.30
7341;DHT22;6870;50.944;6.932;2022-09-01T12:23:29;27.80;13.90
7341;DHT22;6870;50.944;6.932;2022-09-01T12:26:01;27.90;14.80
7341;DHT22;6870;50.944;6.932;2022-09-01T12:28:31;28.00;14.70
7341;DHT22;6870;50.944;6.932;2022-09-01T12:31:05;27.80;15.10
7341;DHT22;6870;50.944;6.932;2022-09-01T12:33:35;27.50;14.40
7341;DHT22;6870;50.944;6.932;2022-09-01T12:36:17;28.10;14.90
7341;DHT22;6870;50.944;6.932;2022-09-01T12:38:48;27.60;13.70
7341;DHT22;6870;50.944;6.932;2022-09-01T12:41:25;28.10;14.00
7341;DHT22;6870;50.944;6.932;2022-09-01T12:44:27;28.30;14.20
7341;DHT22;6870;50.944;6.932;2022-09-01T12:47:00;28.20;13.80
7341;DHT22;6870;50.944;6.932;2022-09-01T12:49:38;27.70;13.40
7341;DHT22;6870;50.944;6.932;2022-09-01T12:52:22;27.40;13.30
7341;DHT22;6870;50.944;6.932;2022-09-01T12:54:54;27.20;13.20
7341;DHT22;6870;50.944;6.932;2022-09-01T12:57:38;27.50;13.80
7341;DHT22;6870;50.944;6.932;2022-09-01T13:00:16;27.30;13.40
7341;DHT22;6870;50.944;6.932;2022-09-01T13:02:48;27.10;13.50
7341;DHT22;6870;50.944;6.932;2022-09-01T13:05:26;27.20;13.70
7341;DHT22;6870;50.944;6.932;2022-09-01T13:08:03;27.10;13.30
7341;DHT22;6870;50.944;6.932;2022-09-01T13:10:36;27.10;14.10
7341;DHT22;6870;50.944;6.932;2022-09-01T13:13:06;27.70;13.10
7341;DHT22;6870;50.944;6.932;2022-09-01T13:15:39;27.80;13.20
7341;DHT22;6870;50.944;6.932;2022-09-01T13:18:10;27.90;13.90
7341;DHT22;6870;50.944;6.932;2022-09-01T13:20:39;27.80;13.60
7341;DHT22;6870;50.944;6.932;2022-09-01T13:23:08;28.10;13.30
7341;DHT22;6870;50.944;6.932;2022-09-01T13:25:38;28.10;13.60
7341;DHT22;6870;50.944;6.932;2022-09-01T13:28:07;28.20;13.60
7341;DHT22;6870;50.944;6.932;2022-09-01T13:30:37;28.40;13.80
7341;DHT22;6870;50.944;6.932;2022-09-01T13:33:06;28.20;13.60
7341;DHT22;6870;50.944;6.932;2022-09-01T13:35:48;28.10;13.70
7341;DHT22;6870;50.944;6.932;2022-09-01T13:38:17;28.10;14.00
7341;DHT22;6870;50.944;6.932;2022-09-01T13:40:48;28.40;13.50
7341;DHT22;6870;50.944;6.932;2022-09-01T13:43:19;28.40;13.70
7341;DHT22;6870;50.944;6.932;2022-09-01T13:45:48;28.40;13.60
7341;DHT22;6870;50.944;6.932;2022-09-01T13:48:18;28.20;13.40
7341;DHT22;6870;50.944;6.932;2022-09-01T13:50:49;28.50;13.90
7341;DHT22;6870;50.944;6.932;2022-09-01T13:53:38;28.20;14.30
7341;DHT22;6870;50.944;6.932;2022-09-01T13:56:06;28.10;14.20
7341;DHT22;6870;50.944;6.932;2022-09-01T13:58:34;28.10;14.40
7341;DHT22;6870;50.944;6.932;2022-09-01T14:01:02;28.10;14.40
7341;DHT22;6870;50.944;6.932;2022-09-01T14:03:31;28.00;15.00
7341;DHT22;6870;50.944;6.932;2022-09-01T14:06:00;28.00;15.20
7341;DHT22;6870;50.944;6.932;2022-09-01T14:08:28;28.10;15.10
7341;DHT22;6870;50.944;6.932;2022-09-01T14:10:59;27.80;15.90
7341;DHT22;6870;50.944;6.932;2022-09-01T14:13:27;27.80;15.40
7341;DHT22;6870;50.944;6.932;2022-09-01T14:15:57;27.80;15.90
7341;DHT22;6870;50.944;6.932;2022-09-01T14:18:27;28.10;16.10
7341;DHT22;6870;50.944;6.932;2022-09-01T14:20:59;28.00;16.00
7341;DHT22;6870;50.944;6.932;2022-09-01T14:23:28;28.10;13.80
7341;DHT22;6870;50.944;6.932;2022-09-01T14:25:56;27.80;13.60
7341;DHT22;6870;50.944;6.932;2022-09-01T14:28:25;28.00;13.80
7341;DHT22;6870;50.944;6.932;2022-09-01T14:30:53;27.30;13.50
7341;DHT22;6870;50.944;6.932;2022-09-01T14:33:21;27.50;13.80
7341;DHT22;6870;50.944;6.932;2022-09-01T14:35:52;27.20;13.40
7341;DHT22;6870;50.944;6.932;2022-09-01T14:38:22;27.50;13.80
7341;DHT22;6870;50.944;6.932;2022-09-01T14:40:50;27.00;13.80
7341;DHT22;6870;50.944;6.932;2022-09-01T14:43:19;27.10;13.60
7341;DHT22;6870;50.944;6.932;2022-09-01T14:45:47;27.20;13.60
7341;DHT22;6870;50.944;6.932;2022-09-01T14:48:17;26.90;13.50
7341;DHT22;6870;50.944;6.932;2022-09-01T14:50:47;27.50;13.90
7341;DHT22;6870;50.944;6.932;2022-09-01T14:53:16;27.10;13.70
7341;DHT22;6870;50.944;6.932;2022-09-01T14:55:46;27.40;13.40
7341;DHT22;6870;50.944;6.932;2022-09-01T14:58:21;27.60;13.50
7341;DHT22;6870;50.944;6.932;2022-09-01T15:00:49;27.80;13.40
7341;DHT22;6870;50.944;6.932;2022-09-01T15:03:17;27.80;13.00
7341;DHT22;6870;50.944;6.932;2022-09-01T15:05:49;27.30;12.80
7341;DHT22;6870;50.944;6.932;2022-09-01T15:08:17;27.60;12.70
7341;DHT22;6870;50.944;6.932;2022-09-01T15:10:47;27.60;12.10
7341;DHT22;6870;50.944;6.932;2022-09-01T15:13:15;27.30;11.30
7341;DHT22;6870;50.944;6.932;2022-09-01T15:15:43;27.70;11.30
7341;DHT22;6870;50.944;6.932;2022-09-01T15:18:11;27.70;11.20
7341;DHT22;6870;50.944;6.932;2022-09-01T15:20:40;27.70;11.90
7341;DHT22;6870;50.944;6.932;2022-09-01T15:23:12;27.30;11.50
7341;DHT22;6870;50.944;6.932;2022-09-01T15:25:42;27.30;11.90
7341;DHT22;6870;50.944;6.932;2022-09-01T15:28:12;27.40;11.80
7341;DHT22;6870;50.944;6.932;2022-09-01T15:30:41;27.00;11.90
7341;DHT22;6870;50.944;6.932;2022-09-01T15:33:13;27.10;12.10
7341;DHT22;6870;50.944;6.932;2022-09-01T15:35:43;27.10;12.20
7341;DHT22;6870;50.944;6.932;2022-09-01T15:38:11;26.90;12.30
7341;DHT22;6870;50.944;6.932;2022-09-01T15:40:44;26.80;12.30
7341;DHT22;6870;50.944;6.932;2022-09-01T15:43:25;26.60;12.30
7341;DHT22;6870;50.944;6.932;2022-09-01T15:45:54;27.10;12.50
7341;DHT22;6870;50.944;6.932;2022-09-01T15:48:24;27.00;12.30
7341;DHT22;6870;50.944;6.932;2022-09-01T15:50:52;26.90;12.00
7341;DHT22;6870;50.944;6.932;2022-09-01T15:53:29;26.50;11.80
7341;DHT22;6870;50.944;6.932;2022-09-01T15:55:57;26.60;11.40
7341;DHT22;6870;50.944;6.932;2022-09-01T15:58:26;26.70;11.20
7341;DHT22;6870;50.944;6.932;2022-09-01T16:01:15;26.80;11.30
7341;DHT22;6870;50.944;6.932;2022-09-01T16:03:44;26.70;10.70
7341;DHT22;6870;50.944;6.932;2022-09-01T16:06:12;26.60;10.40
7341;DHT22;6870;50.944;6.932;2022-09-01T16:08:40;26.60;10.40
7341;DHT22;6870;50.944;6.932;2022-09-01T16:11:09;26.50;10.30
7341;DHT22;6870;50.944;6.932;2022-09-01T16:13:40;26.60;10.40
7341;DHT22;6870;50.944;6.932;2022-09-01T16:16:19;26.60;10.70
7341;DHT22;6870;50.944;6.932;2022-09-01T16:19:00;26.80;10.30
7341;DHT22;6870;50.944;6.932;2022-09-01T16:21:40;26.30;9.70
7341;DHT22;6870;50.944;6.932;2022-09-01T16:24:12;26.60;10.20
7341;DHT22;6870;50.944;6.932;2022-09-01T16:26:44;26.60;9.80
7341;DHT22;6870;50.944;6.932;2022-09-01T16:29:22;26.60;9.80
7341;DHT22;6870;50.944;6.932;2022-09-01T16:31:55;26.60;10.10
7341;DHT22;6870;50.944;6.932;2022-09-01T16:34:23;26.70;10.10
7341;DHT22;6870;50.944;6.932;2022-09-01T16:37:02;26.60;9.90
7341;DHT22;6870;50.944;6.932;2022-09-01T16:39:37;26.50;10.00
7341;DHT22;6870;50.944;6.932;2022-09-01T16:42:17;26.50;10.20
7341;DHT22;6870;50.944;6.932;2022-09-01T16:44:58;26.70;10.20
7341;DHT22;6870;50.944;6.932;2022-09-01T16:47:40;26.30;9.70
7341;DHT22;6870;50.944;6.932;2022-09-01T16:50:24;26.60;9.90
7341;DHT22;6870;50.944;6.932;2022-09-01T16:53:14;26.40;9.70
7341;DHT22;6870;50.944;6.932;2022-09-01T16:55:57;26.60;10.00